Time;durP1;ratioP1;P1;durP2;ratioP2;P2;SDS_P1;SDS_P2;PMS_P1;PMS_P2;Temp;Humidity;BMP_temperature;BMP_pressure;BME280_temperature;BME280_humidity;BME280_pressure;Samples;Min_cycle;Max_cycle;Signal;HPM_P1;HPM_P2
2022/05/19 00:05:10;;;;;;;6.8;14.1;;;;;;;-133;84.4;65280;;;;
2022/05/19 00:15:09;;;;;;;6.4;14.3;;;;;;;-133;84.4;65280;;;;
2022/05/19 00:26:09;;;;;;;6.4;14.3;;;;;;;-133;85.2;65280;;;;
2022/05/19 00:37:09;;;;;;;6.4;14.3;;;;;;;-133;85.1;65280;;;;
2022/05/19 00:47:09;;;;;;;6.7;11.1;;;;;;;-133;88.3;65280;;;;
2022/05/19 00:57:09;;;;;;;6.7;11.1;;;;;;;-133;86.5;65280;;;;
2022/05/19 01:07:09;;;;;;;6.7;11.1;;;;;;;-133;87.9;65280;;;;
2022/05/19 01:17:09;;;;;;;5.7;9.8;;;;;;;-133;88;65280;;;;
2022/05/19 01:27:09;;;;;;;5.7;9.8;;;;;;;-133;90.2;65280;;;;
2022/05/19 01:38:09;;;;;;;5.7;9.8;;;;;;;-133;88.5;65280;;;;
2022/05/19 01:48:09;;;;;;;5.1;11.7;;;;;;;-133;89;65290;;;;
2022/05/19 01:59:09;;;;;;;5.1;11.7;;;;;;;-133;91.8;65290;;;;
2022/05/19 02:10:09;;;;;;;5.8;10.5;;;;;;;-133;92.4;65280;;;;
2022/05/19 02:21:09;;;;;;;5.8;10.5;;;;;;;-133;94.2;65280;;;;
2022/05/19 02:32:09;;;;;;;5.8;10.5;;;;;;;-133;93.1;65290;;;;
2022/05/19 02:43:09;;;;;;;5.4;10.4;;;;;;;-133;91.6;65290;;;;
2022/05/19 02:53:10;;;;;;;5.4;10.4;;;;;;;-133;93.5;65290;;;;
2022/05/19 03:04:09;;;;;;;5.4;10.4;;;;;;;-133;94.8;65290;;;;
2022/05/19 03:15:09;;;;;;;6;11.8;;;;;;;-133;94.4;65290;;;;
2022/05/19 03:25:09;;;;;;;6;11.8;;;;;;;-133;96.3;65280;;;;
2022/05/19 03:36:09;;;;;;;6;11.8;;;;;;;-133;96.3;65290;;;;
2022/05/19 03:47:09;;;;;;;6.6;13.6;;;;;;;-133;94.5;65290;;;;
2022/05/19 03:57:12;;;;;;;6.6;13.6;;;;;;;-133;93.1;65280;;;;
2022/05/19 04:07:09;;;;;;;6.6;13.6;;;;;;;-133;92.7;65290;;;;
2022/05/19 04:17:09;;;;;;;6;11.6;;;;;;;-133;92.5;65290;;;;
2022/05/19 04:27:11;;;;;;;6;11.6;;;;;;;-133;91.8;65280;;;;
2022/05/19 04:38:09;;;;;;;6;11.6;;;;;;;-133;88.5;65280;;;;
2022/05/19 04:49:09;;;;;;;6.7;11.3;;;;;;;-133;86.8;65270;;;;
2022/05/19 04:59:13;;;;;;;6.7;11.3;;;;;;;-133;84.9;65280;;;;
2022/05/19 05:10:09;;;;;;;8.1;12.5;;;;;;;-133;82.9;65270;;;;
2022/05/19 05:20:09;;;;;;;8.1;12.5;;;;;;;-133;80.9;65270;;;;
2022/05/19 05:30:09;;;;;;;8.1;12.5;;;;;;;-133;78.1;65270;;;;
2022/05/19 05:41:09;;;;;;;7.7;18.2;;;;;;;-133;75.5;65260;;;;
2022/05/19 05:51:09;;;;;;;7.7;18.2;;;;;;;-133;70.9;65270;;;;
2022/05/19 06:02:09;;;;;;;7.7;18.2;;;;;;;-133;69.3;65260;;;;
2022/05/19 06:13:09;;;;;;;6.9;14.1;;;;;;;-133;66.6;65250;;;;
2022/05/19 06:23:09;;;;;;;6.9;14.1;;;;;;;-133;65.5;65250;;;;
2022/05/19 06:34:10;;;;;;;6.9;14.1;;;;;;;-133;63.4;65250;;;;
2022/05/19 06:44:09;;;;;;;5.7;11.8;;;;;;;-133;61.6;65250;;;;
2022/05/19 06:54:09;;;;;;;5.7;11.8;;;;;;;-133;57.6;65240;;;;
2022/05/19 07:05:09;;;;;;;5.7;11.8;;;;;;;-133;60.7;65240;;;;
2022/05/19 07:15:09;;;;;;;3.2;7;;;;;;;-133;53.6;65240;;;;
2022/05/19 07:26:09;;;;;;;3.2;7;;;;;;;-133;50.1;65240;;;;
2022/05/19 07:36:09;;;;;;;3.2;7;;;;;;;-133;52.3;65240;;;;
2022/05/19 07:47:09;;;;;;;2.4;6.3;;;;;;;-133;47.7;65240;;;;
2022/05/19 07:57:09;;;;;;;2.4;6.3;;;;;;;-133;47.8;65230;;;;
2022/05/19 08:08:09;;;;;;;2.4;6.3;;;;;;;-133;42.7;65230;;;;
2022/05/19 08:19:10;;;;;;;2.5;6.7;;;;;;;-133;39.9;65230;;;;
2022/05/19 08:29:09;;;;;;;2.5;6.7;;;;;;;-133;38.1;65230;;;;
2022/05/19 08:39:09;;;;;;;2;4.4;;;;;;;-133;37.5;65230;;;;
2022/05/19 08:50:09;;;;;;;2;4.4;;;;;;;-133;36.9;65230;;;;
2022/05/19 09:01:09;;;;;;;2;4.4;;;;;;;-133;37;65220;;;;
2022/05/19 09:11:10;;;;;;;2.2;5.1;;;;;;;-133;38;65230;;;;
2022/05/19 09:21:09;;;;;;;2.2;5.1;;;;;;;-133;38.4;65230;;;;
2022/05/19 09:32:09;;;;;;;2.2;5.1;;;;;;;-133;35;65230;;;;
2022/05/19 09:42:09;;;;;;;1.7;5;;;;;;;-133;35.5;65220;;;;
2022/05/19 09:53:09;;;;;;;1.7;5;;;;;;;-133;36.1;65230;;;;
2022/05/19 10:03:09;;;;;;;1.7;5;;;;;;;-133;35.7;65230;;;;
2022/05/19 10:13:10;;;;;;;2;4.7;;;;;;;-133;35.3;65230;;;;
2022/05/19 10:24:10;;;;;;;2;4.7;;;;;;;-133;33.4;65220;;;;
2022/05/19 10:35:09;;;;;;;2;4.7;;;;;;;-133;34.8;65230;;;;
2022/05/19 10:45:10;;;;;;;2.9;13;;;;;;;-133;32.3;65230;;;;
2022/05/19 10:55:10;;;;;;;2.9;13;;;;;;;-133;32.5;65230;;;;
2022/05/19 11:05:09;;;;;;;2.9;13;;;;;;;-133;31.1;65230;;;;
2022/05/19 11:15:09;;;;;;;1.8;4.2;;;;;;;-133;31.1;65230;;;;
2022/05/19 11:26:25;;;;;;;1.8;4.2;;;;;;;-133;31.4;65230;;;;
2022/05/19 11:37:09;;;;;;;1.8;4.2;;;;;;;-133;32.6;65230;;;;
2022/05/19 11:47:09;;;;;;;1.6;4.5;;;;;;;-133;29.7;65230;;;;
2022/05/19 11:57:09;;;;;;;1.6;4.5;;;;;;;-133;28.6;65230;;;;
2022/05/19 12:08:09;;;;;;;1.6;4.5;;;;;;;-133;29.6;65230;;;;
2022/05/19 12:18:09;;;;;;;1.7;4.1;;;;;;;-133;29.1;65230;;;;
2022/05/19 12:29:10;;;;;;;1.7;4.1;;;;;;;-133;27.6;65230;;;;
2022/05/19 12:39:09;;;;;;;1.4;4.4;;;;;;;-133;27.5;65230;;;;
2022/05/19 12:49:13;;;;;;;1.4;4.4;;;;;;;-133;27.1;65230;;;;
2022/05/19 13:00:09;;;;;;;1.4;4.4;;;;;;;-133;28.2;65230;;;;
2022/05/19 13:10:09;;;;;;;1.3;3.3;;;;;;;-133;28.1;65230;;;;
2022/05/19 13:20:09;;;;;;;1.3;3.3;;;;;;;-133;26.9;65230;;;;
2022/05/19 13:30:26;;;;;;;1.3;3.3;;;;;;;-133;26.2;65230;;;;
2022/05/19 13:41:09;;;;;;;1.5;4.2;;;;;;;-133;26.5;65230;;;;
2022/05/19 13:52:09;;;;;;;1.5;4.2;;;;;;;-133;26.7;65230;;;;
2022/05/19 14:02:09;;;;;;;1.5;4.2;;;;;;;-133;26.1;65230;;;;
2022/05/19 14:13:09;;;;;;;1.8;4.5;;;;;;;-133;25.5;65230;;;;
2022/05/19 14:24:09;;;;;;;1.8;4.5;;;;;;;-133;26.7;65230;;;;
2022/05/19 14:35:09;;;;;;;1.8;4.5;;;;;;;-133;28.1;65230;;;;
2022/05/19 14:46:09;;;;;;;1.7;5;;;;;;;-133;23;65230;;;;
2022/05/19 14:56:09;;;;;;;1.7;5;;;;;;;-133;24.3;65230;;;;
2022/05/19 15:07:09;;;;;;;1.7;5;;;;;;;-133;21.2;65230;;;;
2022/05/19 15:18:10;;;;;;;1.4;4.2;;;;;;;-133;18.9;65230;;;;
2022/05/19 15:28:09;;;;;;;1.4;4.2;;;;;;;-133;18.7;65230;;;;
2022/05/19 15:39:09;;;;;;;1.8;5.6;;;;;;;-133;17.1;65230;;;;
2022/05/19 15:50:09;;;;;;;1.8;5.6;;;;;;;-133;16.6;65230;;;;
2022/05/19 16:01:09;;;;;;;1.8;5.6;;;;;;;-133;16.8;65230;;;;
2022/05/19 16:11:10;;;;;;;1.9;5.6;;;;;;;-133;18.2;65230;;;;
2022/05/19 16:21:09;;;;;;;1.9;5.6;;;;;;;-133;17.4;65240;;;;
2022/05/19 16:31:09;;;;;;;1.9;5.6;;;;;;;-133;20;65240;;;;
2022/05/19 16:41:09;;;;;;;2.5;8;;;;;;;-133;20.7;65240;;;;
2022/05/19 16:51:09;;;;;;;2.5;8;;;;;;;-133;23.4;65240;;;;
2022/05/19 17:01:09;;;;;;;2.5;8;;;;;;;-133;24.5;65240;;;;
2022/05/19 17:12:09;;;;;;;8.5;36.3;;;;;;;-133;27.8;65250;;;;
2022/05/19 17:23:09;;;;;;;8.5;36.3;;;;;;;-133;29;65250;;;;
2022/05/19 17:34:09;;;;;;;8.5;36.3;;;;;;;-133;32.2;65260;;;;
2022/05/19 17:44:09;;;;;;;4.3;15.9;;;;;;;-133;33.3;65250;;;;
2022/05/19 17:54:09;;;;;;;4.3;15.9;;;;;;;-133;36.4;65260;;;;
2022/05/19 18:05:11;;;;;;;4.3;15.9;;;;;;;-133;39.5;65260;;;;
2022/05/19 18:25:09;;;;;;;3.7;11.2;;;;;;;-133;45;65260;;;;
2022/05/19 18:36:09;;;;;;;3.7;11.2;;;;;;;-133;47.7;65270;;;;
2022/05/19 18:46:09;;;;;;;4.2;8.1;;;;;;;-133;48.3;65260;;;;
2022/05/19 18:57:09;;;;;;;4.2;8.1;;;;;;;-133;43.7;65260;;;;
2022/05/19 19:07:09;;;;;;;4.2;8.1;;;;;;;-133;42.7;65270;;;;
2022/05/19 19:18:09;;;;;;;3.4;7.9;;;;;;;-133;44.2;65270;;;;
2022/05/19 19:28:09;;;;;;;3.4;7.9;;;;;;;-133;44.4;65270;;;;
2022/05/19 19:38:10;;;;;;;3.4;7.9;;;;;;;-133;46;65270;;;;
2022/05/19 19:48:09;;;;;;;4.3;7.7;;;;;;;-133;46.7;65270;;;;
2022/05/19 19:58:09;;;;;;;4.3;7.7;;;;;;;-133;46.3;65270;;;;
2022/05/19 20:09:09;;;;;;;4.3;7.8;;;;;;;-133;46.1;65270;;;;
2022/05/19 20:19:09;;;;;;;4.3;7.8;;;;;;;-133;48.7;65260;;;;
2022/05/19 20:40:09;;;;;;;3.9;9.1;;;;;;;-133;51.4;65270;;;;
2022/05/19 20:50:09;;;;;;;3.9;9.1;;;;;;;-133;51.7;65270;;;;
2022/05/19 21:00:10;;;;;;;3.9;9.1;;;;;;;-133;52.2;65270;;;;
2022/05/19 21:10:10;;;;;;;4.2;12.1;;;;;;;-133;53.1;65270;;;;
2022/05/19 21:20:09;;;;;;;4.2;12.1;;;;;;;-133;54.1;65270;;;;
2022/05/19 21:31:09;;;;;;;4.2;12.1;;;;;;;-133;55.8;65270;;;;
2022/05/19 21:41:09;;;;;;;5.5;9.9;;;;;;;-133;55.6;65270;;;;
2022/05/19 22:01:09;;;;;;;5.5;9.9;;;;;;;-133;56.2;65270;;;;
2022/05/19 22:11:09;;;;;;;4.2;10.5;;;;;;;-133;56.1;65270;;;;
2022/05/19 22:22:09;;;;;;;4.2;10.5;;;;;;;-133;55.7;65280;;;;
2022/05/19 22:32:09;;;;;;;4.2;10.5;;;;;;;-133;54.9;65270;;;;
2022/05/19 22:42:10;;;;;;;3;6.7;;;;;;;-133;53.6;65280;;;;
2022/05/19 22:53:10;;;;;;;3;6.7;;;;;;;-133;52.4;65280;;;;
2022/05/19 23:03:09;;;;;;;3;6.7;;;;;;;-133;53.7;65280;;;;
2022/05/19 23:14:10;;;;;;;2.6;5.6;;;;;;;-133;57.4;65280;;;;
2022/05/19 23:24:10;;;;;;;2.6;5.6;;;;;;;-133;57.5;65280;;;;
2022/05/19 23:34:09;;;;;;;2.6;5.6;;;;;;;-133;58.6;65280;;;;
2022/05/19 23:45:10;;;;;;;2.8;5.2;;;;;;;-133;60;65280;;;;
2022/05/19 23:56:09;;;;;;;2.8;5.2;;;;;;;-133;60.3;65280;;;;
